Time;durP1;ratioP1;P1;durP2;ratioP2;P2;SDS_P1;SDS_P2;PMS_P1;PMS_P2;Temp;Humidity;BMP_temperature;BMP_pressure;BME280_temperature;BME280_humidity;BME280_pressure;Samples;Min_cycle;Max_cycle;Signal;HPM_P1;HPM_P2
2023/09/16 00:01:09;;;;;;;8.25;3.95;;;;;;;;;;5008310;28;20109;-67
2023/09/16 00:03:35;;;;;;;9.73;4.13;;;;;;;;;;5008968;28;20101;-66
2023/09/16 00:06:01;;;;;;;10.80;4.55;;;;;;;;;;5009370;28;20017;-66
2023/09/16 00:08:26;;;;;;;9.40;4.45;;;;;;;;;;5009159;28;20050;-66
2023/09/16 00:10:51;;;;;;;7.60;3.80;;;;;;;;;;5008574;28;20088;-66
2023/09/16 00:13:16;;;;;;;11.20;4.75;;;;;;;;;;5009207;28;20446;-66
2023/09/16 00:15:45;;;;;;;12.77;4.55;;;;;;;;;;5008749;28;20485;-66
2023/09/16 00:18:10;;;;;;;;;;;;;;;;;;4991935;28;20385;-66
2023/09/16 00:20:36;;;;;;;10.40;4.85;;;;;;;;;;5008897;28;19905;-64
2023/09/16 00:23:04;;;;;;;9.15;4.93;;;;;;;;;;5009560;28;20117;-65
2023/09/16 00:25:29;;;;;;;8.73;4.47;;;;;;;;;;5009018;28;20396;-65
2023/09/16 00:27:54;;;;;;;12.38;4.50;;;;;;;;;;5009186;28;20018;-66
2023/09/16 00:30:19;;;;;;;14.35;4.10;;;;;;;;;;5009127;28;20018;-65
2023/09/16 00:32:45;;;;;;;11.38;4.35;;;;;;;;;;5008895;28;20210;-64
2023/09/16 00:35:10;;;;;;;7.95;4.00;;;;;;;;;;5008636;28;20032;-66
2023/09/16 00:37:35;;;;;;;9.80;3.90;;;;;;;;;;5009096;28;20029;-64
2023/09/16 00:40:01;;;;;;;11.32;4.32;;;;;;;;;;5009213;28;20033;-66
2023/09/16 00:42:26;;;;;;;6.55;3.03;;;;;;;;;;5010132;28;20111;-65
2023/09/16 00:44:51;;;;;;;7.82;4.18;;;;;;;;;;5008708;28;20476;-65
2023/09/16 00:47:16;;;;;;;10.05;3.92;;;;;;;;;;5008975;28;20397;-62
2023/09/16 00:49:42;;;;;;;12.13;3.83;;;;;;;;;;5011130;28;20075;-65
2023/09/16 00:52:07;;;;;;;9.27;3.97;;;;;;;;;;5009020;28;20467;-65
2023/09/16 00:54:33;;;;;;;6.88;3.47;;;;;;;;;;5008531;28;20109;-66
2023/09/16 00:56:59;;;;;;;9.23;3.72;;;;;;;;;;5009403;28;20014;-65
2023/09/16 00:59:25;;;;;;;6.50;3.92;;;;;;;;;;5008920;28;20029;-64
2023/09/16 01:01:51;;;;;;;7.05;3.55;;;;;;;;;;5002721;28;20110;-67
2023/09/16 01:04:17;;;;;;;9.57;4.10;;;;;;;;;;5008144;28;20014;-65
2023/09/16 01:06:50;;;;;;;7.57;3.80;;;;;;;;;;5008609;28;20026;-65
2023/09/16 01:09:17;;;;;;;7.00;3.60;;;;;;;;;;5008529;28;20041;-66
2023/09/16 01:11:42;;;;;;;7.57;3.88;;;;;;;;;;5009639;28;20022;-67
2023/09/16 01:14:11;;;;;;;9.70;3.30;;;;;;;;;;5008634;28;20084;-66
2023/09/16 01:16:55;;;;;;;6.80;3.70;;;;;;;;;;5009168;28;20045;-65
2023/09/16 01:19:23;;;;;;;9.18;3.90;;;;;;;;;;5007315;28;20025;-65
2023/09/16 01:21:49;;;;;;;7.97;3.97;;;;;;;;;;5012937;28;20029;-65
2023/09/16 01:24:15;;;;;;;9.18;3.90;;;;;;;;;;5012257;28;20401;-66
2023/09/16 01:26:41;;;;;;;9.40;4.10;;;;;;;;;;5011817;28;20515;-65
2023/09/16 01:29:06;;;;;;;8.18;3.60;;;;;;;;;;5011975;28;20137;-66
2023/09/16 01:31:31;;;;;;;9.82;3.97;;;;;;;;;;5011847;28;20160;-65
2023/09/16 01:33:58;;;;;;;9.15;4.15;;;;;;;;;;5011904;28;20404;-66
2023/09/16 01:36:25;;;;;;;11.63;4.68;;;;;;;;;;5012043;28;20461;-65
2023/09/16 01:38:56;;;;;;;7.18;3.80;;;;;;;;;;5011735;28;20447;-65
2023/09/16 01:41:22;;;;;;;6.28;3.58;;;;;;;;;;5012030;28;20041;-65
2023/09/16 01:43:48;;;;;;;8.93;4.38;;;;;;;;;;5012472;28;20465;-64
2023/09/16 01:46:13;;;;;;;7.50;3.80;;;;;;;;;;5011527;28;20029;-66
2023/09/16 01:48:38;;;;;;;11.27;3.80;;;;;;;;;;5011524;28;20156;-65
2023/09/16 01:51:03;;;;;;;8.80;4.00;;;;;;;;;;5011747;28;20362;-66
2023/09/16 01:53:29;;;;;;;7.70;3.97;;;;;;;;;;5011825;28;20104;-66
2023/09/16 01:55:54;;;;;;;7.07;3.85;;;;;;;;;;5011813;28;20057;-66
2023/09/16 01:58:19;;;;;;;10.00;3.92;;;;;;;;;;5011353;28;20036;-66
2023/09/16 02:00:45;;;;;;;7.10;3.67;;;;;;;;;;5004936;28;20026;-67
2023/09/16 02:03:10;;;;;;;8.32;4.10;;;;;;;;;;5011326;28;20014;-62
2023/09/16 02:05:35;;;;;;;10.60;4.13;;;;;;;;;;5010915;28;20033;-65
2023/09/16 02:08:01;;;;;;;11.77;4.75;;;;;;;;;;5011534;28;20010;-64
2023/09/16 02:10:26;;;;;;;11.30;4.55;;;;;;;;;;5011314;28;20018;-65
2023/09/16 02:12:51;;;;;;;11.65;4.65;;;;;;;;;;5010979;28;20018;-67
2023/09/16 02:15:17;;;;;;;9.80;3.97;;;;;;;;;;5010988;28;20092;-65
2023/09/16 02:17:42;;;;;;;8.07;4.65;;;;;;;;;;5011163;28;20018;-65
2023/09/16 02:20:11;;;;;;;8.73;4.30;;;;;;;;;;5011482;28;20443;-65
2023/09/16 02:22:40;;;;;;;10.75;4.40;;;;;;;;;;5011827;28;20018;-65
2023/09/16 02:25:05;;;;;;;8.25;4.18;;;;;;;;;;5010784;28;20058;-65
2023/09/16 02:27:32;;;;;;;11.45;4.22;;;;;;;;;;5011182;28;20053;-65
2023/09/16 02:29:57;;;;;;;8.45;4.70;;;;;;;;;;5011268;28;20173;-65
2023/09/16 02:32:22;;;;;;;12.63;4.28;;;;;;;;;;5011955;28;20454;-66
2023/09/16 02:34:47;;;;;;;11.52;4.35;;;;;;;;;;5010586;28;20162;-62
2023/09/16 02:37:13;;;;;;;10.93;4.75;;;;;;;;;;5011172;28;20018;-65
2023/09/16 02:39:38;;;;;;;8.73;4.38;;;;;;;;;;5010722;28;20084;-66
2023/09/16 02:42:04;;;;;;;12.55;5.15;;;;;;;;;;5010745;28;20430;-66
2023/09/16 02:44:29;;;;;;;9.80;4.80;;;;;;;;;;5011346;28;20504;-64
2023/09/16 02:46:55;;;;;;;10.43;4.97;;;;;;;;;;5010785;28;20024;-66
2023/09/16 02:49:20;;;;;;;11.38;4.97;;;;;;;;;;5010553;28;20370;-66
2023/09/16 02:51:45;;;;;;;10.27;5.00;;;;;;;;;;5010707;28;20013;-66
2023/09/16 02:54:10;;;;;;;10.20;4.88;;;;;;;;;;5010397;28;20022;-65
2023/09/16 02:56:35;;;;;;;10.68;4.78;;;;;;;;;;5010446;28;20026;-66
2023/09/16 02:59:01;;;;;;;9.70;5.22;;;;;;;;;;5008561;28;20018;-67
2023/09/16 03:01:26;;;;;;;10.40;4.85;;;;;;;;;;5001130;28;20048;-61
2023/09/16 03:03:51;;;;;;;9.32;5.18;;;;;;;;;;5009770;28;20025;-66
2023/09/16 03:06:17;;;;;;;11.60;5.38;;;;;;;;;;5010033;28;20109;-65
2023/09/16 03:08:42;;;;;;;12.50;5.03;;;;;;;;;;5010024;28;20101;-65
2023/09/16 03:11:07;;;;;;;8.73;4.88;;;;;;;;;;5010411;28;20392;-67
2023/09/16 03:13:32;;;;;;;8.90;4.72;;;;;;;;;;5010295;28;20022;-66
2023/09/16 03:16:16;;;;;;;9.10;4.43;;;;;;;;;;5010611;28;20014;-63
2023/09/16 03:18:43;;;;;;;10.60;4.90;;;;;;;;;;5010050;28;20026;-65
2023/09/16 03:21:08;;;;;;;9.13;4.50;;;;;;;;;;5010572;28;20101;-62
2023/09/16 03:23:33;;;;;;;9.77;5.07;;;;;;;;;;5009949;28;20053;-66
2023/09/16 03:25:58;;;;;;;11.02;5.25;;;;;;;;;;5009776;28;20108;-66
2023/09/16 03:28:24;;;;;;;10.73;4.82;;;;;;;;;;5009797;28;20098;-66
2023/09/16 03:30:49;;;;;;;11.32;5.57;;;;;;;;;;5009664;28;20024;-67
2023/09/16 03:33:14;;;;;;;8.68;4.78;;;;;;;;;;5009504;28;20038;-65
2023/09/16 03:35:39;;;;;;;9.40;5.30;;;;;;;;;;5009573;28;20065;-62
2023/09/16 03:38:04;;;;;;;14.27;5.32;;;;;;;;;;5009748;28;20022;-66
2023/09/16 03:40:30;;;;;;;9.43;5.28;;;;;;;;;;5009483;28;20025;-64
2023/09/16 03:42:55;;;;;;;10.30;5.55;;;;;;;;;;5010302;28;20020;-65
2023/09/16 03:45:20;;;;;;;11.75;5.53;;;;;;;;;;5009477;28;20017;-66
2023/09/16 03:47:46;;;;;;;10.75;5.72;;;;;;;;;;5009324;28;20445;-62
2023/09/16 03:50:11;;;;;;;12.48;5.60;;;;;;;;;;5009807;28;20477;-65
2023/09/16 03:52:36;;;;;;;11.35;5.40;;;;;;;;;;5009228;28;20030;-63
2023/09/16 03:55:02;;;;;;;9.45;5.50;;;;;;;;;;5009029;28;20025;-67
2023/09/16 03:57:27;;;;;;;9.52;5.65;;;;;;;;;;5009616;28;20072;-66
2023/09/16 03:59:53;;;;;;;11.40;5.90;;;;;;;;;;5002714;28;20393;-68
2023/09/16 04:02:18;;;;;;;11.93;6.55;;;;;;;;;;5004889;28;20497;-64
2023/09/16 04:04:44;;;;;;;10.43;4.97;;;;;;;;;;5009111;28;20059;-66
2023/09/16 04:07:09;;;;;;;12.52;5.93;;;;;;;;;;5009294;28;20103;-66
2023/09/16 04:09:34;;;;;;;10.65;5.30;;;;;;;;;;5009163;28;20018;-66
2023/09/16 04:11:59;;;;;;;13.32;6.20;;;;;;;;;;5010299;28;20048;-66
2023/09/16 04:14:25;;;;;;;14.40;6.13;;;;;;;;;;5009118;28;20089;-66
2023/09/16 04:16:50;;;;;;;11.80;5.47;;;;;;;;;;5008917;28;20010;-66
2023/09/16 04:19:15;;;;;;;12.02;6.03;;;;;;;;;;5009627;28;20503;-62
2023/09/16 04:21:40;;;;;;;11.77;6.13;;;;;;;;;;5009081;28;20032;-65
2023/09/16 04:24:05;;;;;;;11.68;5.80;;;;;;;;;;5008958;28;20276;-64
2023/09/16 04:26:32;;;;;;;9.85;6.03;;;;;;;;;;5008903;28;20049;-63
2023/09/16 04:28:57;;;;;;;16.75;6.70;;;;;;;;;;5009188;28;20026;-63
2023/09/16 04:31:22;;;;;;;10.40;6.47;;;;;;;;;;5009178;28;20040;-65
2023/09/16 04:33:47;;;;;;;10.05;6.07;;;;;;;;;;5008825;28;20069;-66
2023/09/16 04:36:13;;;;;;;13.40;6.85;;;;;;;;;;5007924;28;20022;-65
2023/09/16 04:38:38;;;;;;;12.35;7.30;;;;;;;;;;5006926;28;20531;-66
2023/09/16 04:41:05;;;;;;;11.95;6.78;;;;;;;;;;5007815;28;20026;-66
2023/09/16 04:43:30;;;;;;;11.50;6.03;;;;;;;;;;5009683;28;20444;-65
2023/09/16 04:45:55;;;;;;;16.95;6.43;;;;;;;;;;5005692;28;20013;-66
2023/09/16 04:48:22;;;;;;;11.02;6.20;;;;;;;;;;5007593;28;20101;-68
2023/09/16 04:50:47;;;;;;;14.20;7.20;;;;;;;;;;5008428;28;20079;-65
2023/09/16 04:53:13;;;;;;;13.43;7.72;;;;;;;;;;5008442;28;20105;-68
2023/09/16 04:55:38;;;;;;;13.75;6.78;;;;;;;;;;5010369;28;20026;-67
2023/09/16 04:58:03;;;;;;;15.18;7.82;;;;;;;;;;5010443;28;20115;-65
2023/09/16 05:00:33;;;;;;;13.52;7.28;;;;;;;;;;5007606;28;20041;-66
2023/09/16 05:02:58;;;;;;;10.57;6.60;;;;;;;;;;5012328;28;20101;-66
2023/09/16 05:05:24;;;;;;;11.13;6.45;;;;;;;;;;5010280;28;20030;-63
2023/09/16 05:07:49;;;;;;;11.68;7.60;;;;;;;;;;5010628;28;20021;-68
2023/09/16 05:10:14;;;;;;;10.57;6.60;;;;;;;;;;5010632;28;20026;-67
2023/09/16 05:12:40;;;;;;;12.00;7.03;;;;;;;;;;5011809;28;20088;-68
2023/09/16 05:15:09;;;;;;;13.10;7.57;;;;;;;;;;5011896;28;20543;-64
2023/09/16 05:17:36;;;;;;;14.68;7.82;;;;;;;;;;5012585;28;20035;-66
2023/09/16 05:20:02;;;;;;;15.85;7.43;;;;;;;;;;5012046;28;20010;-69
2023/09/16 05:22:27;;;;;;;11.68;7.45;;;;;;;;;;5012377;28;20076;-66
2023/09/16 05:24:52;;;;;;;13.65;7.68;;;;;;;;;;5011304;28;20030;-67
2023/09/16 05:27:17;;;;;;;11.40;7.35;;;;;;;;;;5011678;28;20076;-67
2023/09/16 05:29:43;;;;;;;15.10;7.20;;;;;;;;;;5011781;28;20026;-67
2023/09/16 05:32:09;;;;;;;15.07;8.32;;;;;;;;;;4994241;28;20020;-68
2023/09/16 05:34:34;;;;;;;15.13;7.72;;;;;;;;;;5011000;28;20022;-66
2023/09/16 05:36:59;;;;;;;17.30;7.85;;;;;;;;;;5011553;28;20025;-67
2023/09/16 05:39:24;;;;;;;13.20;7.63;;;;;;;;;;5011588;28;20033;-67
2023/09/16 05:41:50;;;;;;;12.18;7.20;;;;;;;;;;5011980;28;20053;-67
2023/09/16 05:44:19;;;;;;;12.63;7.45;;;;;;;;;;5012615;28;20067;-63
2023/09/16 05:46:45;;;;;;;14.32;7.03;;;;;;;;;;5011867;28;20033;-68
2023/09/16 05:49:11;;;;;;;16.58;7.90;;;;;;;;;;5011765;28;20030;-66
2023/09/16 05:51:36;;;;;;;11.77;7.32;;;;;;;;;;5013704;28;20022;-64
2023/09/16 05:54:02;;;;;;;16.08;7.90;;;;;;;;;;5011117;28;20021;-66
2023/09/16 05:56:27;;;;;;;12.75;7.35;;;;;;;;;;5011650;28;20018;-66
2023/09/16 05:58:56;;;;;;;13.95;7.40;;;;;;;;;;5010812;28;20017;-69
2023/09/16 06:01:22;;;;;;;13.57;7.72;;;;;;;;;;5006895;28;20017;-67
2023/09/16 06:03:47;;;;;;;14.02;6.60;;;;;;;;;;5011206;28;20041;-67
2023/09/16 06:06:12;;;;;;;13.02;7.40;;;;;;;;;;5010188;28;20474;-65
2023/09/16 06:08:37;;;;;;;15.98;7.50;;;;;;;;;;5010209;28;20037;-68
2023/09/16 06:11:03;;;;;;;12.90;6.97;;;;;;;;;;5010307;28;20668;-67
2023/09/16 06:13:28;;;;;;;11.05;6.38;;;;;;;;;;5009899;28;20025;-68
2023/09/16 06:15:53;;;;;;;10.90;6.82;;;;;;;;;;5018031;28;20017;-64
2023/09/16 06:18:18;;;;;;;18.90;7.53;;;;;;;;;;5010886;28;20049;-67
2023/09/16 06:20:43;;;;;;;14.80;6.88;;;;;;;;;;5010808;28;20035;-67
2023/09/16 06:23:09;;;;;;;14.38;7.25;;;;;;;;;;5010869;28;20021;-67
2023/09/16 06:25:34;;;;;;;16.02;6.90;;;;;;;;;;5009675;28;20088;-68
2023/09/16 06:27:59;;;;;;;16.52;7.72;;;;;;;;;;4993257;28;20124;-68
2023/09/16 06:30:25;;;;;;;12.32;7.40;;;;;;;;;;5009907;28;20022;-66
2023/09/16 06:32:52;;;;;;;18.52;8.20;;;;;;;;;;5010813;28;20014;-66
2023/09/16 06:35:17;;;;;;;11.30;6.88;;;;;;;;;;5007893;28;20022;-68
2023/09/16 06:37:43;;;;;;;13.52;8.05;;;;;;;;;;5008439;28;20508;-67
2023/09/16 06:40:08;;;;;;;16.75;6.70;;;;;;;;;;5010658;28;20018;-65
2023/09/16 06:42:33;;;;;;;11.70;7.22;;;;;;;;;;5011979;28;20084;-67
2023/09/16 06:44:58;;;;;;;12.20;7.63;;;;;;;;;;4993089;28;20101;-68
2023/09/16 06:47:26;;;;;;;13.45;8.02;;;;;;;;;;5010546;28;20046;-64
2023/09/16 06:49:51;;;;;;;13.27;7.53;;;;;;;;;;5012285;28;20133;-66
2023/09/16 06:52:17;;;;;;;15.20;6.90;;;;;;;;;;5010449;28;20026;-70
2023/09/16 06:54:42;;;;;;;11.23;7.18;;;;;;;;;;5009739;28;20052;-65
2023/09/16 06:57:07;;;;;;;13.85;7.25;;;;;;;;;;5010125;28;20017;-69
2023/09/16 06:59:32;;;;;;;11.98;7.38;;;;;;;;;;5009573;28;20029;-67
2023/09/16 07:01:57;;;;;;;12.75;7.45;;;;;;;;;;5004304;28;20389;-69
2023/09/16 07:04:25;;;;;;;11.80;7.00;;;;;;;;;;5009694;28;20018;-67
2023/09/16 07:06:50;;;;;;;13.20;7.40;;;;;;;;;;5008439;28;20033;-68
2023/09/16 07:09:15;;;;;;;19.15;7.63;;;;;;;;;;5007312;28;20100;-67
2023/09/16 07:11:40;;;;;;;12.10;7.00;;;;;;;;;;5009848;28;20466;-67
2023/09/16 07:14:06;;;;;;;13.00;7.32;;;;;;;;;;5009647;28;20041;-66
2023/09/16 07:16:36;;;;;;;13.75;7.88;;;;;;;;;;5007937;28;20443;-65
2023/09/16 07:19:01;;;;;;;13.98;7.43;;;;;;;;;;5003089;28;20013;-64
2023/09/16 07:21:26;;;;;;;13.90;7.22;;;;;;;;;;5009592;28;20425;-70
2023/09/16 07:23:52;;;;;;;16.15;7.70;;;;;;;;;;5009469;28;20021;-69
2023/09/16 07:26:17;;;;;;;14.25;8.07;;;;;;;;;;5009693;28;20914;-69
2023/09/16 07:28:42;;;;;;;14.18;7.72;;;;;;;;;;5009838;28;20016;-65
2023/09/16 07:31:07;;;;;;;12.57;7.35;;;;;;;;;;5010035;28;20026;-68
2023/09/16 07:33:33;;;;;;;12.00;6.38;;;;;;;;;;5009537;28;20056;-66
2023/09/16 07:35:58;;;;;;;13.93;7.13;;;;;;;;;;5009399;28;20131;-67
2023/09/16 07:38:23;;;;;;;12.68;6.63;;;;;;;;;;5011143;28;20029;-68
2023/09/16 07:40:50;;;;;;;12.80;6.95;;;;;;;;;;5009500;28;20091;-67
2023/09/16 07:43:17;;;;;;;12.93;7.20;;;;;;;;;;5011280;28;20017;-69
2023/09/16 07:45:42;;;;;;;15.48;7.75;;;;;;;;;;5009138;28;20037;-68
2023/09/16 07:48:09;;;;;;;11.38;7.57;;;;;;;;;;5009713;28;20121;-67
2023/09/16 07:50:34;;;;;;;11.35;6.20;;;;;;;;;;5012039;28;20037;-68
2023/09/16 07:53:00;;;;;;;17.08;7.95;;;;;;;;;;5009285;28;20017;-69
2023/09/16 07:55:25;;;;;;;9.75;5.97;;;;;;;;;;5008966;28;20473;-71
2023/09/16 07:57:50;;;;;;;13.10;7.13;;;;;;;;;;5008894;28;20014;-63
2023/09/16 08:00:15;;;;;;;12.43;6.43;;;;;;;;;;5007570;28;20054;-68
2023/09/16 08:02:41;;;;;;;11.63;6.47;;;;;;;;;;5009453;28;20068;-69
2023/09/16 08:05:06;;;;;;;9.43;5.93;;;;;;;;;;5008108;28;20024;-68
2023/09/16 08:07:31;;;;;;;11.68;6.35;;;;;;;;;;5009338;28;20025;-69
2023/09/16 08:09:58;;;;;;;15.50;7.10;;;;;;;;;;4991816;28;20022;-68
2023/09/16 08:12:23;;;;;;;9.25;5.60;;;;;;;;;;5009343;28;20017;-66
2023/09/16 08:14:49;;;;;;;11.07;5.97;;;;;;;;;;5008709;28;20068;-67
2023/09/16 08:17:14;;;;;;;8.65;5.03;;;;;;;;;;5008648;28;20018;-68
2023/09/16 08:19:39;;;;;;;17.77;6.22;;;;;;;;;;5008781;28;20029;-65
2023/09/16 08:22:05;;;;;;;10.02;6.38;;;;;;;;;;5008807;28;20049;-67
2023/09/16 08:24:30;;;;;;;11.60;5.80;;;;;;;;;;5008336;28;20082;-71
2023/09/16 08:26:55;;;;;;;11.38;5.90;;;;;;;;;;5011337;28;20040;-67
2023/09/16 08:29:21;;;;;;;10.55;6.13;;;;;;;;;;5012962;28;20026;-68
2023/09/16 08:31:46;;;;;;;9.93;5.80;;;;;;;;;;5012942;28;20018;-67
2023/09/16 08:34:11;;;;;;;10.52;5.82;;;;;;;;;;5012117;28;20621;-65
2023/09/16 08:36:36;;;;;;;11.10;5.30;;;;;;;;;;5012745;28;20018;-68
2023/09/16 08:39:02;;;;;;;16.42;6.07;;;;;;;;;;5013221;28;20528;-67
2023/09/16 08:41:45;;;;;;;13.70;5.93;;;;;;;;;;5013313;28;20029;-67
2023/09/16 08:44:13;;;;;;;18.15;6.55;;;;;;;;;;5009270;28;20033;-66
2023/09/16 08:46:41;;;;;;;11.27;6.07;;;;;;;;;;5012419;28;20037;-67
2023/09/16 08:49:07;;;;;;;11.02;6.00;;;;;;;;;;4994652;28;20481;-68
2023/09/16 08:51:35;;;;;;;13.68;6.00;;;;;;;;;;5015602;28;20060;-67
2023/09/16 08:54:02;;;;;;;9.95;5.63;;;;;;;;;;5012279;28;20036;-68
2023/09/16 08:56:28;;;;;;;10.45;5.53;;;;;;;;;;5012576;28;20113;-67
2023/09/16 08:58:53;;;;;;;13.00;5.78;;;;;;;;;;5011517;28;20013;-67
2023/09/16 09:01:19;;;;;;;9.23;5.55;;;;;;;;;;5005796;28;20473;-68
2023/09/16 09:03:44;;;;;;;7.65;4.68;;;;;;;;;;5010863;28;20481;-67
2023/09/16 09:06:10;;;;;;;9.60;5.05;;;;;;;;;;5011852;28;20130;-69
2023/09/16 09:08:35;;;;;;;10.00;5.10;;;;;;;;;;5012937;28;20018;-70
2023/09/16 09:11:01;;;;;;;7.22;4.30;;;;;;;;;;5012805;28;20443;-66
2023/09/16 09:13:27;;;;;;;8.90;4.78;;;;;;;;;;5012765;28;20014;-67
2023/09/16 09:15:56;;;;;;;15.93;6.25;;;;;;;;;;5011413;28;20026;-68
2023/09/16 09:18:23;;;;;;;9.15;5.05;;;;;;;;;;5012399;28;20013;-65
2023/09/16 09:20:48;;;;;;;10.93;4.30;;;;;;;;;;5010124;28;20504;-69
2023/09/16 09:23:14;;;;;;;8.85;4.65;;;;;;;;;;5007568;28;20026;-64
2023/09/16 09:25:41;;;;;;;9.48;4.50;;;;;;;;;;5010943;28;20018;-69
2023/09/16 09:28:07;;;;;;;8.10;4.28;;;;;;;;;;4991310;28;20644;-68
2023/09/16 09:30:32;;;;;;;7.93;4.55;;;;;;;;;;5011261;28;20153;-67
2023/09/16 09:32:58;;;;;;;8.50;4.72;;;;;;;;;;5011778;28;20378;-66
2023/09/16 09:35:24;;;;;;;8.23;4.57;;;;;;;;;;5011440;28;20041;-65
2023/09/16 09:37:50;;;;;;;7.13;4.07;;;;;;;;;;5011458;28;20076;-68
2023/09/16 09:40:15;;;;;;;7.57;3.58;;;;;;;;;;5010863;28;20026;-68
2023/09/16 09:42:41;;;;;;;8.68;4.70;;;;;;;;;;5012779;28;20014;-68
2023/09/16 09:45:07;;;;;;;10.70;6.22;;;;;;;;;;5011113;28;20032;-69
2023/09/16 09:47:34;;;;;;;9.77;4.93;;;;;;;;;;5011187;28;20014;-68
2023/09/16 09:49:59;;;;;;;7.28;4.75;;;;;;;;;;4993773;28;20156;-68
2023/09/16 09:52:25;;;;;;;8.25;4.80;;;;;;;;;;5011418;28;20026;-69
2023/09/16 09:54:55;;;;;;;16.48;6.18;;;;;;;;;;5010134;28;21362;-66
2023/09/16 09:57:20;;;;;;;11.23;4.20;;;;;;;;;;5005249;28;20612;-66
2023/09/16 09:59:46;;;;;;;8.52;4.93;;;;;;;;;;5008654;28;20094;-67
2023/09/16 10:02:11;;;;;;;7.70;4.20;;;;;;;;;;5012076;28;20034;-65
2023/09/16 10:04:36;;;;;;;8.13;4.93;;;;;;;;;;5005231;28;20026;-65
2023/09/16 10:07:03;;;;;;;8.82;4.03;;;;;;;;;;5007420;28;21544;-69
2023/09/16 10:09:28;;;;;;;11.02;4.78;;;;;;;;;;4988941;28;20041;-68
2023/09/16 10:11:53;;;;;;;7.95;4.03;;;;;;;;;;5007647;28;20022;-65
2023/09/16 10:14:19;;;;;;;8.50;4.93;;;;;;;;;;5006851;28;20496;-65
2023/09/16 10:16:46;;;;;;;7.85;4.35;;;;;;;;;;5007095;28;20022;-68
2023/09/16 10:19:11;;;;;;;9.43;4.38;;;;;;;;;;5003251;28;20114;-64
2023/09/16 10:21:37;;;;;;;9.48;4.57;;;;;;;;;;5003540;28;20103;-69
2023/09/16 10:24:02;;;;;;;8.38;4.60;;;;;;;;;;5007416;28;20504;-66
2023/09/16 10:26:28;;;;;;;8.85;4.28;;;;;;;;;;5003603;28;20032;-66
2023/09/16 10:28:54;;;;;;;8.95;4.50;;;;;;;;;;5003775;28;20425;-67
2023/09/16 10:31:20;;;;;;;8.50;4.20;;;;;;;;;;5005380;28;20014;-67
2023/09/16 10:33:46;;;;;;;9.90;4.20;;;;;;;;;;4985295;28;20561;-68
2023/09/16 10:36:11;;;;;;;9.50;4.70;;;;;;;;;;5004111;28;20110;-68
2023/09/16 10:38:37;;;;;;;12.40;4.40;;;;;;;;;;5004376;28;20053;-69
2023/09/16 10:41:04;;;;;;;6.47;4.03;;;;;;;;;;5005955;28;20091;-66
2023/09/16 10:43:30;;;;;;;7.25;3.83;;;;;;;;;;5003526;28;20033;-66
2023/09/16 10:45:56;;;;;;;9.98;4.20;;;;;;;;;;4985839;28;20017;-66
2023/09/16 10:48:21;;;;;;;10.68;4.13;;;;;;;;;;5004444;28;20027;-67
2023/09/16 10:50:47;;;;;;;8.93;4.22;;;;;;;;;;5009224;28;20497;-68
2023/09/16 10:53:18;;;;;;;7.00;3.65;;;;;;;;;;5008884;28;20097;-68
2023/09/16 10:55:43;;;;;;;6.85;3.55;;;;;;;;;;5007899;28;20018;-63
2023/09/16 10:58:20;;;;;;;7.32;3.38;;;;;;;;;;5008016;28;20759;-66
2023/09/16 11:00:53;;;;;;;10.63;4.13;;;;;;;;;;5007989;28;20018;-65
2023/09/16 11:03:20;;;;;;;9.55;4.22;;;;;;;;;;5008421;28;20043;-69
2023/09/16 11:05:45;;;;;;;7.95;3.75;;;;;;;;;;5007039;28;20086;-64
2023/09/16 11:08:10;;;;;;;6.35;3.60;;;;;;;;;;5009657;28;20481;-67
2023/09/16 11:10:36;;;;;;;5.93;3.80;;;;;;;;;;5005656;28;20081;-65
2023/09/16 11:13:02;;;;;;;6.07;3.28;;;;;;;;;;5007455;28;20018;-64
2023/09/16 11:15:32;;;;;;;5.90;2.88;;;;;;;;;;5007222;28;20037;-67
2023/09/16 11:18:01;;;;;;;9.18;3.40;;;;;;;;;;5006847;28;20120;-65
2023/09/16 11:20:31;;;;;;;6.82;3.17;;;;;;;;;;5007886;28;20436;-67
2023/09/16 11:22:56;;;;;;;7.53;3.20;;;;;;;;;;5008391;28;20053;-67
2023/09/16 11:25:21;;;;;;;7.85;2.97;;;;;;;;;;5009492;28;20024;-67
2023/09/16 11:27:46;;;;;;;7.93;3.07;;;;;;;;;;5009105;28;20083;-67
2023/09/16 11:30:15;;;;;;;6.18;2.60;;;;;;;;;;5008950;28;20406;-66
2023/09/16 11:32:41;;;;;;;9.52;3.28;;;;;;;;;;5009112;28;20032;-66
2023/09/16 11:35:06;;;;;;;6.53;2.95;;;;;;;;;;5006955;28;20105;-65
2023/09/16 11:37:33;;;;;;;7.70;2.42;;;;;;;;;;5009058;28;20022;-63
2023/09/16 11:40:00;;;;;;;4.78;2.30;;;;;;;;;;5009587;28;20388;-65
2023/09/16 11:42:25;;;;;;;6.75;2.67;;;;;;;;;;5010458;28;20025;-67
2023/09/16 11:44:50;;;;;;;5.90;2.78;;;;;;;;;;5009562;28;20546;-67
2023/09/16 11:47:16;;;;;;;5.35;2.63;;;;;;;;;;5008829;28;20024;-66
2023/09/16 11:49:41;;;;;;;6.10;2.70;;;;;;;;;;5008675;28;20025;-65
2023/09/16 11:52:07;;;;;;;6.97;2.75;;;;;;;;;;5006323;28;20022;-66
2023/09/16 11:54:32;;;;;;;5.63;2.90;;;;;;;;;;5005266;28;20390;-66
2023/09/16 11:56:57;;;;;;;6.65;2.50;;;;;;;;;;5008763;28;20532;-65
2023/09/16 11:59:23;;;;;;;7.57;2.88;;;;;;;;;;5004161;28;20025;-66
2023/09/16 12:01:49;;;;;;;8.70;3.35;;;;;;;;;;5002460;28;20029;-67
2023/09/16 12:04:15;;;;;;;5.97;3.05;;;;;;;;;;5007597;28;20022;-67
2023/09/16 12:06:41;;;;;;;8.35;2.92;;;;;;;;;;5009579;28;20021;-67
2023/09/16 12:09:07;;;;;;;4.20;2.50;;;;;;;;;;5009815;28;20014;-65
2023/09/16 12:11:33;;;;;;;5.10;2.55;;;;;;;;;;5008809;28;20056;-65
2023/09/16 12:14:00;;;;;;;6.35;2.90;;;;;;;;;;5009774;28;20061;-68
2023/09/16 12:16:26;;;;;;;7.43;2.90;;;;;;;;;;5008767;28;20601;-64
2023/09/16 12:18:51;;;;;;;5.20;2.55;;;;;;;;;;5008067;28;20026;-67
2023/09/16 12:21:17;;;;;;;5.07;2.58;;;;;;;;;;5008533;28;20596;-66
2023/09/16 12:23:42;;;;;;;4.68;2.63;;;;;;;;;;5009801;28;20481;-67
2023/09/16 12:26:08;;;;;;;6.03;2.92;;;;;;;;;;4991785;28;20108;-67
2023/09/16 12:28:34;;;;;;;5.43;2.53;;;;;;;;;;5010745;28;20026;-66
2023/09/16 12:30:59;;;;;;;6.47;2.65;;;;;;;;;;5009764;28;20473;-66
2023/09/16 12:33:39;;;;;;;4.82;2.45;;;;;;;;;;5010508;28;20454;-66
2023/09/16 12:36:05;;;;;;;4.88;2.80;;;;;;;;;;5008919;28;20018;-64
2023/09/16 12:38:32;;;;;;;6.55;2.45;;;;;;;;;;5009828;28;20436;-67
2023/09/16 12:40:57;;;;;;;6.55;2.80;;;;;;;;;;5008924;28;20054;-67
2023/09/16 12:43:22;;;;;;;7.05;2.92;;;;;;;;;;5010486;28;20157;-66
2023/09/16 12:45:48;;;;;;;8.43;2.60;;;;;;;;;;5008311;28;20018;-65
2023/09/16 12:48:13;;;;;;;6.50;3.00;;;;;;;;;;5008668;28;20098;-65
2023/09/16 12:50:39;;;;;;;4.55;2.22;;;;;;;;;;5011367;28;20033;-66
2023/09/16 12:53:04;;;;;;;5.68;2.55;;;;;;;;;;5008659;28;20528;-67
2023/09/16 12:55:30;;;;;;;6.00;2.42;;;;;;;;;;5008483;28;20022;-67
2023/09/16 12:57:55;;;;;;;5.70;2.30;;;;;;;;;;5007985;28;20016;-66
2023/09/16 13:00:21;;;;;;;5.65;2.20;;;;;;;;;;5003823;28;20093;-65
2023/09/16 13:02:46;;;;;;;5.03;2.55;;;;;;;;;;5006520;28;20113;-65
2023/09/16 13:05:19;;;;;;;4.43;2.30;;;;;;;;;;5007786;28;20017;-66
2023/09/16 13:07:45;;;;;;;5.80;2.10;;;;;;;;;;5009006;28;20022;-64
2023/09/16 13:10:11;;;;;;;6.70;2.58;;;;;;;;;;5008847;28;20045;-66
2023/09/16 13:12:36;;;;;;;5.90;2.90;;;;;;;;;;5008289;28;20026;-63
2023/09/16 13:15:02;;;;;;;8.45;2.40;;;;;;;;;;5009466;28;20536;-67
2023/09/16 13:17:28;;;;;;;5.50;2.50;;;;;;;;;;5012044;28;20516;-66
2023/09/16 13:20:00;;;;;;;3.83;2.10;;;;;;;;;;5011733;28;20038;-66
2023/09/16 13:22:25;;;;;;;7.70;2.20;;;;;;;;;;5011862;28;20337;-66
2023/09/16 13:24:51;;;;;;;5.30;2.42;;;;;;;;;;5011316;28;20026;-66
2023/09/16 13:27:17;;;;;;;5.88;2.75;;;;;;;;;;5011317;28;20026;-66
2023/09/16 13:29:42;;;;;;;4.43;2.15;;;;;;;;;;5010993;28;20093;-67
2023/09/16 13:32:08;;;;;;;6.03;2.73;;;;;;;;;;5011879;28;20537;-66
2023/09/16 13:34:39;;;;;;;4.90;2.28;;;;;;;;;;5010924;28;20281;-65
2023/09/16 13:37:05;;;;;;;6.50;2.40;;;;;;;;;;4989245;28;20010;-67
2023/09/16 13:39:39;;;;;;;4.93;2.22;;;;;;;;;;4994256;28;20079;-66
2023/09/16 13:42:05;;;;;;;4.22;2.30;;;;;;;;;;5009598;28;20389;-66
2023/09/16 13:44:30;;;;;;;5.40;2.20;;;;;;;;;;5013510;28;20076;-67
2023/09/16 13:46:55;;;;;;;6.83;2.27;;;;;;;;;;5011111;28;20262;-66
2023/09/16 13:49:20;;;;;;;3.33;1.90;;;;;;;;;;5012715;28;20251;-65
2023/09/16 13:51:46;;;;;;;5.50;2.20;;;;;;;;;;5012849;28;20025;-65
2023/09/16 13:54:11;;;;;;;4.78;2.30;;;;;;;;;;5011057;28;20674;-67
2023/09/16 13:56:37;;;;;;;5.15;2.03;;;;;;;;;;5011219;28;20018;-67
2023/09/16 13:59:02;;;;;;;6.53;2.25;;;;;;;;;;5010984;28;20014;-66
2023/09/16 14:01:27;;;;;;;6.10;2.25;;;;;;;;;;5004558;28;20021;-64
2023/09/16 14:03:53;;;;;;;7.75;2.50;;;;;;;;;;5011098;28;20041;-66
2023/09/16 14:06:18;;;;;;;4.20;2.13;;;;;;;;;;5010328;28;20412;-65
2023/09/16 14:08:43;;;;;;;6.00;2.03;;;;;;;;;;5004128;28;20105;-68
2023/09/16 14:11:08;;;;;;;4.50;2.27;;;;;;;;;;5010818;28;20773;-65
2023/09/16 14:13:33;;;;;;;5.17;2.30;;;;;;;;;;5010897;28;20882;-64
2023/09/16 14:15:59;;;;;;;5.10;2.22;;;;;;;;;;5010728;28;20251;-66
2023/09/16 14:18:25;;;;;;;11.80;2.87;;;;;;;;;;5010741;28;20010;-67
2023/09/16 14:20:50;;;;;;;5.55;2.00;;;;;;;;;;5009698;28;20346;-67
2023/09/16 14:23:15;;;;;;;4.23;2.00;;;;;;;;;;5010715;28;20132;-67
2023/09/16 14:25:41;;;;;;;4.70;2.10;;;;;;;;;;5009509;28;20362;-67
2023/09/16 14:28:06;;;;;;;5.78;2.45;;;;;;;;;;5010492;28;20072;-69
2023/09/16 14:30:32;;;;;;;6.00;2.20;;;;;;;;;;5009769;28;20073;-66